sensor_id;sensor_type;location;lat;lon;timestamp;pressure;altitude;pressure_sealevel;temperature;humidity
20077;BME280;12348;42.710;23.378;2023-07-20T00:00:58;94816.69;;;22.63;100.00
20077;BME280;12348;42.710;23.378;2023-07-20T00:03:25;94816.34;;;22.68;100.00
20077;BME280;12348;42.710;23.378;2023-07-20T00:05:51;94817.13;;;22.69;100.00
20077;BME280;12348;42.710;23.378;2023-07-20T00:08:20;94820.66;;;22.69;100.00
20077;BME280;12348;42.710;23.378;2023-07-20T00:10:46;94810.34;;;22.59;100.00
20077;BME280;12348;42.710;23.378;2023-07-20T00:13:14;94801.34;;;22.29;100.00
20077;BME280;12348;42.710;23.378;2023-07-20T00:15:44;94807.00;;;22.13;100.00
20077;BME280;12348;42.710;23.378;2023-07-20T00:18:11;94818.00;;;21.86;100.00
20077;BME280;12348;42.710;23.378;2023-07-20T00:20:38;94820.63;;;21.79;100.00
20077;BME280;12348;42.710;23.378;2023-07-20T00:23:04;94810.28;;;21.69;100.00
20077;BME280;12348;42.710;23.378;2023-07-20T00:25:33;94809.72;;;21.33;100.00
20077;BME280;12348;42.710;23.378;2023-07-20T00:27:59;94811.75;;;21.17;100.00
20077;BME280;12348;42.710;23.378;2023-07-20T00:30:26;94820.16;;;21.04;100.00
20077;BME280;12348;42.710;23.378;2023-07-20T00:32:53;94825.28;;;20.87;100.00
20077;BME280;12348;42.710;23.378;2023-07-20T00:35:20;94822.97;;;20.66;100.00
20077;BME280;12348;42.710;23.378;2023-07-20T00:37:47;94822.09;;;20.62;100.00
20077;BME280;12348;42.710;23.378;2023-07-20T00:40:13;94806.81;;;20.61;100.00
20077;BME280;12348;42.710;23.378;2023-07-20T00:42:42;94798.53;;;20.57;100.00
20077;BME280;12348;42.710;23.378;2023-07-20T00:45:09;94804.09;;;20.61;100.00
20077;BME280;12348;42.710;23.378;2023-07-20T00:47:36;94805.00;;;20.49;100.00
20077;BME280;12348;42.710;23.378;2023-07-20T00:50:05;94806.50;;;20.46;100.00
20077;BME280;12348;42.710;23.378;2023-07-20T00:52:33;94790.09;;;20.46;100.00
20077;BME280;12348;42.710;23.378;2023-07-20T00:55:00;94787.53;;;20.53;100.00
20077;BME280;12348;42.710;23.378;2023-07-20T00:57:27;94788.38;;;20.57;100.00
20077;BME280;12348;42.710;23.378;2023-07-20T00:59:56;94789.34;;;20.65;100.00
20077;BME280;12348;42.710;23.378;2023-07-20T01:02:22;94785.72;;;20.61;100.00
20077;BME280;12348;42.710;23.378;2023-07-20T01:04:49;94795.09;;;20.60;100.00
20077;BME280;12348;42.710;23.378;2023-07-20T01:07:21;94789.69;;;20.64;100.00
20077;BME280;12348;42.710;23.378;2023-07-20T01:09:54;94793.59;;;20.63;100.00
20077;BME280;12348;42.710;23.378;2023-07-20T01:12:27;94807.06;;;20.52;100.00
20077;BME280;12348;42.710;23.378;2023-07-20T01:14:59;94806.75;;;20.57;100.00
20077;BME280;12348;42.710;23.378;2023-07-20T01:17:26;94812.91;;;20.50;100.00
20077;BME280;12348;42.710;23.378;2023-07-20T01:19:53;94792.41;;;20.44;100.00
20077;BME280;12348;42.710;23.378;2023-07-20T01:22:33;94796.16;;;20.36;100.00
20077;BME280;12348;42.710;23.378;2023-07-20T01:25:15;94796.81;;;20.29;100.00
20077;BME280;12348;42.710;23.378;2023-07-20T01:28:06;94792.13;;;20.30;100.00
20077;BME280;12348;42.710;23.378;2023-07-20T01:30:56;94791.72;;;20.28;100.00
20077;BME280;12348;42.710;23.378;2023-07-20T01:33:29;94801.91;;;20.31;100.00
20077;BME280;12348;42.710;23.378;2023-07-20T01:35:59;94796.50;;;20.34;100.00
20077;BME280;12348;42.710;23.378;2023-07-20T01:38:26;94814.44;;;20.32;100.00
20077;BME280;12348;42.710;23.378;2023-07-20T01:40:53;94812.50;;;20.32;100.00
20077;BME280;12348;42.710;23.378;2023-07-20T01:43:20;94805.88;;;20.33;100.00
20077;BME280;12348;42.710;23.378;2023-07-20T01:45:47;94804.72;;;20.34;100.00
20077;BME280;12348;42.710;23.378;2023-07-20T01:48:13;94796.16;;;20.36;100.00
20077;BME280;12348;42.710;23.378;2023-07-20T01:50:42;94801.25;;;20.38;100.00
20077;BME280;12348;42.710;23.378;2023-07-20T01:53:08;94800.31;;;20.30;100.00
20077;BME280;12348;42.710;23.378;2023-07-20T01:55:35;94799.63;;;20.33;100.00
20077;BME280;12348;42.710;23.378;2023-07-20T01:58:02;94796.66;;;20.22;100.00
20077;BME280;12348;42.710;23.378;2023-07-20T02:00:29;94792.13;;;20.30;100.00
20077;BME280;12348;42.710;23.378;2023-07-20T02:02:56;94788.69;;;20.33;100.00
20077;BME280;12348;42.710;23.378;2023-07-20T02:05:23;94791.09;;;20.38;100.00
20077;BME280;12348;42.710;23.378;2023-07-20T02:07:53;94793.69;;;20.31;100.00
20077;BME280;12348;42.710;23.378;2023-07-20T02:10:20;94789.84;;;20.32;100.00
20077;BME280;12348;42.710;23.378;2023-07-20T02:12:47;94779.97;;;20.47;100.00
20077;BME280;12348;42.710;23.378;2023-07-20T02:15:14;94778.91;;;20.51;100.00
20077;BME280;12348;42.710;23.378;2023-07-20T02:17:41;94781.78;;;20.39;100.00
20077;BME280;12348;42.710;23.378;2023-07-20T02:20:09;94782.84;;;20.34;100.00
20077;BME280;12348;42.710;23.378;2023-07-20T02:22:36;94785.78;;;20.45;100.00
20077;BME280;12348;42.710;23.378;2023-07-20T02:25:08;94787.00;;;20.48;100.00
20077;BME280;12348;42.710;23.378;2023-07-20T02:27:39;94782.34;;;20.48;100.00
20077;BME280;12348;42.710;23.378;2023-07-20T02:30:07;94783.06;;;20.45;100.00
20077;BME280;12348;42.710;23.378;2023-07-20T02:32:36;94782.13;;;20.57;100.00
20077;BME280;12348;42.710;23.378;2023-07-20T02:35:03;94774.38;;;20.59;100.00
20077;BME280;12348;42.710;23.378;2023-07-20T02:37:31;94772.81;;;20.42;100.00
20077;BME280;12348;42.710;23.378;2023-07-20T02:39:58;94773.84;;;20.34;100.00
20077;BME280;12348;42.710;23.378;2023-07-20T02:42:28;94777.44;;;20.38;100.00
20077;BME280;12348;42.710;23.378;2023-07-20T02:44:55;94762.63;;;20.39;100.00
20077;BME280;12348;42.710;23.378;2023-07-20T02:47:23;94759.00;;;20.35;100.00
20077;BME280;12348;42.710;23.378;2023-07-20T02:49:50;94752.09;;;20.41;100.00
20077;BME280;12348;42.710;23.378;2023-07-20T02:52:17;94750.06;;;20.54;100.00
20077;BME280;12348;42.710;23.378;2023-07-20T02:54:44;94753.97;;;20.56;100.00
20077;BME280;12348;42.710;23.378;2023-07-20T02:57:11;94762.84;;;20.50;100.00
20077;BME280;12348;42.710;23.378;2023-07-20T02:59:39;94765.78;;;20.41;100.00
20077;BME280;12348;42.710;23.378;2023-07-20T03:02:06;94769.53;;;20.33;100.00
20077;BME280;12348;42.710;23.378;2023-07-20T03:04:35;94768.22;;;20.27;100.00
20077;BME280;12348;42.710;23.378;2023-07-20T03:07:02;94774.63;;;20.15;100.00
20077;BME280;12348;42.710;23.378;2023-07-20T03:09:29;94771.41;;;20.09;100.00
20077;BME280;12348;42.710;23.378;2023-07-20T03:11:56;94775.56;;;20.03;100.00
20077;BME280;12348;42.710;23.378;2023-07-20T03:14:22;94778.53;;;19.95;100.00
20077;BME280;12348;42.710;23.378;2023-07-20T03:16:51;94773.38;;;19.93;100.00
20077;BME280;12348;42.710;23.378;2023-07-20T03:19:18;94786.78;;;19.98;100.00
20077;BME280;12348;42.710;23.378;2023-07-20T03:21:45;94784.47;;;20.00;100.00
20077;BME280;12348;42.710;23.378;2023-07-20T03:24:11;94782.69;;;20.08;100.00
20077;BME280;12348;42.710;23.378;2023-07-20T03:26:38;94789.38;;;20.10;100.00
20077;BME280;12348;42.710;23.378;2023-07-20T03:29:05;94780.81;;;20.12;100.00
20077;BME280;12348;42.710;23.378;2023-07-20T03:31:32;94786.34;;;20.16;100.00
20077;BME280;12348;42.710;23.378;2023-07-20T03:34:00;94781.81;;;20.23;100.00
20077;BME280;12348;42.710;23.378;2023-07-20T03:36:27;94777.22;;;20.47;100.00
20077;BME280;12348;42.710;23.378;2023-07-20T03:38:53;94789.50;;;20.76;100.00
20077;BME280;12348;42.710;23.378;2023-07-20T03:41:20;94788.69;;;20.95;100.00
20077;BME280;12348;42.710;23.378;2023-07-20T03:43:47;94789.31;;;21.30;100.00
20077;BME280;12348;42.710;23.378;2023-07-20T03:46:14;94789.25;;;21.76;100.00
20077;BME280;12348;42.710;23.378;2023-07-20T03:48:41;94793.84;;;22.22;100.00
20077;BME280;12348;42.710;23.378;2023-07-20T03:51:09;94784.53;;;22.64;100.00
20077;BME280;12348;42.710;23.378;2023-07-20T03:53:36;94789.13;;;22.90;100.00
20077;BME280;12348;42.710;23.378;2023-07-20T03:56:03;94788.66;;;23.21;100.00
20077;BME280;12348;42.710;23.378;2023-07-20T03:58:30;94782.78;;;23.19;100.00
20077;BME280;12348;42.710;23.378;2023-07-20T04:00:57;94788.31;;;23.71;100.00
20077;BME280;12348;42.710;23.378;2023-07-20T04:03:24;94796.44;;;24.15;100.00
20077;BME280;12348;42.710;23.378;2023-07-20T04:05:53;94801.81;;;24.71;100.00
20077;BME280;12348;42.710;23.378;2023-07-20T04:08:23;94804.69;;;25.03;100.00
20077;BME280;12348;42.710;23.378;2023-07-20T04:10:50;94798.06;;;25.86;100.00
20077;BME280;12348;42.710;23.378;2023-07-20T04:13:17;94799.56;;;26.33;95.65
20077;BME280;12348;42.710;23.378;2023-07-20T04:15:44;94803.16;;;26.09;95.53
20077;BME280;12348;42.710;23.378;2023-07-20T04:18:11;94796.25;;;26.81;91.03
20077;BME280;12348;42.710;23.378;2023-07-20T04:20:37;94785.56;;;27.50;86.10
20077;BME280;12348;42.710;23.378;2023-07-20T04:23:04;94783.13;;;28.42;81.65
20077;BME280;12348;42.710;23.378;2023-07-20T04:25:33;94791.59;;;28.96;77.48
20077;BME280;12348;42.710;23.378;2023-07-20T04:28:05;94789.91;;;28.71;78.34
20077;BME280;12348;42.710;23.378;2023-07-20T04:30:34;94774.75;;;28.11;80.96
20077;BME280;12348;42.710;23.378;2023-07-20T04:33:01;94785.38;;;29.15;77.86
20077;BME280;12348;42.710;23.378;2023-07-20T04:35:49;94783.22;;;30.67;69.88
20077;BME280;12348;42.710;23.378;2023-07-20T04:38:16;94767.63;;;30.10;71.94
20077;BME280;12348;42.710;23.378;2023-07-20T04:40:47;94758.97;;;30.88;69.35
20077;BME280;12348;42.710;23.378;2023-07-20T04:43:14;94766.78;;;32.27;64.68
20077;BME280;12348;42.710;23.378;2023-07-20T04:45:41;94760.38;;;33.40;59.00
20077;BME280;12348;42.710;23.378;2023-07-20T04:48:09;94765.22;;;32.26;61.41
20077;BME280;12348;42.710;23.378;2023-07-20T04:50:37;94757.09;;;32.03;63.46
20077;BME280;12348;42.710;23.378;2023-07-20T04:53:04;94762.84;;;32.70;61.29
20077;BME280;12348;42.710;23.378;2023-07-20T04:55:32;94765.91;;;32.01;62.16
20077;BME280;12348;42.710;23.378;2023-07-20T04:58:01;94757.91;;;30.62;67.00
20077;BME280;12348;42.710;23.378;2023-07-20T05:00:28;94757.56;;;31.16;67.03
20077;BME280;12348;42.710;23.378;2023-07-20T05:02:56;94759.06;;;32.90;60.46
20077;BME280;12348;42.710;23.378;2023-07-20T05:05:24;94768.09;;;32.81;60.10
20077;BME280;12348;42.710;23.378;2023-07-20T05:07:50;94770.00;;;32.84;59.57
20077;BME280;12348;42.710;23.378;2023-07-20T05:10:17;94767.41;;;33.19;59.63
20077;BME280;12348;42.710;23.378;2023-07-20T05:12:44;94773.28;;;34.10;56.22
20077;BME280;12348;42.710;23.378;2023-07-20T05:15:13;94777.69;;;34.33;54.29
20077;BME280;12348;42.710;23.378;2023-07-20T05:17:39;94787.94;;;33.89;55.82
20077;BME280;12348;42.710;23.378;2023-07-20T05:20:07;94784.81;;;35.13;53.03
20077;BME280;12348;42.710;23.378;2023-07-20T05:22:36;94770.50;;;35.82;51.29
20077;BME280;12348;42.710;23.378;2023-07-20T05:25:06;94769.78;;;36.37;48.96
20077;BME280;12348;42.710;23.378;2023-07-20T05:27:33;94766.56;;;35.71;51.09
20077;BME280;12348;42.710;23.378;2023-07-20T05:30:00;94774.78;;;36.33;50.20
20077;BME280;12348;42.710;23.378;2023-07-20T05:32:28;94773.16;;;35.86;50.61
20077;BME280;12348;42.710;23.378;2023-07-20T05:34:55;94780.22;;;37.01;47.80
20077;BME280;12348;42.710;23.378;2023-07-20T05:37:22;94777.06;;;35.48;51.29
20077;BME280;12348;42.710;23.378;2023-07-20T05:39:49;94778.69;;;37.00;46.93
20077;BME280;12348;42.710;23.378;2023-07-20T05:42:15;94781.19;;;36.79;47.13
20077;BME280;12348;42.710;23.378;2023-07-20T05:44:42;94786.84;;;34.34;55.51
20077;BME280;12348;42.710;23.378;2023-07-20T05:47:09;94800.03;;;36.88;48.36
20077;BME280;12348;42.710;23.378;2023-07-20T05:49:37;94798.63;;;37.20;47.21
20077;BME280;12348;42.710;23.378;2023-07-20T05:52:04;94806.22;;;35.60;51.12
20077;BME280;12348;42.710;23.378;2023-07-20T05:54:31;94795.78;;;35.29;52.71
20077;BME280;12348;42.710;23.378;2023-07-20T05:56:58;94789.53;;;37.25;46.99
20077;BME280;12348;42.710;23.378;2023-07-20T05:59:24;94800.94;;;38.30;44.11
20077;BME280;12348;42.710;23.378;2023-07-20T06:01:54;94784.91;;;36.12;48.60
20077;BME280;12348;42.710;23.378;2023-07-20T06:04:21;94784.63;;;36.56;49.06
20077;BME280;12348;42.710;23.378;2023-07-20T06:06:49;94783.59;;;37.32;46.72
20077;BME280;12348;42.710;23.378;2023-07-20T06:09:16;94791.81;;;38.45;43.04
20077;BME280;12348;42.710;23.378;2023-07-20T06:11:43;94794.13;;;37.98;44.26
20077;BME280;12348;42.710;23.378;2023-07-20T06:14:09;94795.97;;;38.73;43.23
20077;BME280;12348;42.710;23.378;2023-07-20T06:16:36;94784.53;;;39.66;41.57
20077;BME280;12348;42.710;23.378;2023-07-20T06:19:03;94788.34;;;39.18;42.10
20077;BME280;12348;42.710;23.378;2023-07-20T06:21:30;94774.16;;;36.75;47.60
20077;BME280;12348;42.710;23.378;2023-07-20T06:23:59;94771.06;;;38.33;43.35
20077;BME280;12348;42.710;23.378;2023-07-20T06:26:25;94769.00;;;39.56;39.55
20077;BME280;12348;42.710;23.378;2023-07-20T06:28:54;94769.25;;;37.73;43.89
20077;BME280;12348;42.710;23.378;2023-07-20T06:31:20;94759.81;;;37.85;44.75
20077;BME280;12348;42.710;23.378;2023-07-20T06:33:47;94756.69;;;38.94;41.27
20077;BME280;12348;42.710;23.378;2023-07-20T06:36:18;94752.59;;;37.60;44.76
20077;BME280;12348;42.710;23.378;2023-07-20T06:38:44;94757.00;;;37.52;43.98
20077;BME280;12348;42.710;23.378;2023-07-20T06:41:12;94754.06;;;39.05;40.95
20077;BME280;12348;42.710;23.378;2023-07-20T06:43:39;94756.00;;;38.84;39.98
20077;BME280;12348;42.710;23.378;2023-07-20T06:46:06;94770.00;;;38.54;42.34
20077;BME280;12348;42.710;23.378;2023-07-20T06:48:33;94764.53;;;39.19;39.99
20077;BME280;12348;42.710;23.378;2023-07-20T06:51:00;94771.53;;;38.41;40.57
20077;BME280;12348;42.710;23.378;2023-07-20T06:53:28;94769.66;;;38.14;41.17
20077;BME280;12348;42.710;23.378;2023-07-20T06:55:54;94767.47;;;37.84;41.93
20077;BME280;12348;42.710;23.378;2023-07-20T06:58:24;94768.44;;;39.22;40.53
20077;BME280;12348;42.710;23.378;2023-07-20T07:00:51;94774.72;;;40.32;37.34
20077;BME280;12348;42.710;23.378;2023-07-20T07:03:18;94781.44;;;39.79;38.49
20077;BME280;12348;42.710;23.378;2023-07-20T07:05:45;94797.75;;;41.12;35.80
20077;BME280;12348;42.710;23.378;2023-07-20T07:08:11;94791.44;;;42.23;34.08
20077;BME280;12348;42.710;23.378;2023-07-20T07:10:38;94793.13;;;42.04;33.72
20077;BME280;12348;42.710;23.378;2023-07-20T07:13:05;94791.59;;;41.13;34.91
20077;BME280;12348;42.710;23.378;2023-07-20T07:15:33;94794.06;;;39.09;38.39
20077;BME280;12348;42.710;23.378;2023-07-20T07:18:00;94802.94;;;37.82;41.17
20077;BME280;12348;42.710;23.378;2023-07-20T07:20:28;94812.34;;;35.45;47.41
20077;BME280;12348;42.710;23.378;2023-07-20T07:22:55;94825.56;;;36.26;46.19
20077;BME280;12348;42.710;23.378;2023-07-20T07:25:22;94824.88;;;36.71;45.79
20077;BME280;12348;42.710;23.378;2023-07-20T07:27:49;94833.09;;;35.88;47.05
20077;BME280;12348;42.710;23.378;2023-07-20T07:30:16;94830.63;;;35.28;48.73
20077;BME280;12348;42.710;23.378;2023-07-20T07:32:45;94831.97;;;37.36;44.16
20077;BME280;12348;42.710;23.378;2023-07-20T07:35:12;94827.53;;;38.77;40.05
20077;BME280;12348;42.710;23.378;2023-07-20T07:37:38;94812.22;;;38.93;38.01
20077;BME280;12348;42.710;23.378;2023-07-20T07:40:06;94813.22;;;39.05;39.11
20077;BME280;12348;42.710;23.378;2023-07-20T07:42:33;94813.91;;;40.65;35.28
20077;BME280;12348;42.710;23.378;2023-07-20T07:45:00;94811.03;;;41.58;33.64
20077;BME280;12348;42.710;23.378;2023-07-20T07:47:27;94812.84;;;41.87;33.15
20077;BME280;12348;42.710;23.378;2023-07-20T07:49:55;94820.16;;;41.41;33.49
20077;BME280;12348;42.710;23.378;2023-07-20T07:52:22;94781.63;;;41.76;32.86
20077;BME280;12348;42.710;23.378;2023-07-20T07:54:49;94755.22;;;39.28;37.09
20077;BME280;12348;42.710;23.378;2023-07-20T07:57:16;94764.84;;;41.40;34.17
20077;BME280;12348;42.710;23.378;2023-07-20T07:59:43;94780.81;;;40.45;35.26
20077;BME280;12348;42.710;23.378;2023-07-20T08:02:11;94782.16;;;39.94;35.48
20077;BME280;12348;42.710;23.378;2023-07-20T08:04:38;94774.66;;;41.13;33.65
20077;BME280;12348;42.710;23.378;2023-07-20T08:07:06;94787.22;;;40.86;34.77
20077;BME280;12348;42.710;23.378;2023-07-20T08:09:32;94800.91;;;40.93;35.16
20077;BME280;12348;42.710;23.378;2023-07-20T08:11:59;94802.97;;;40.52;36.58
20077;BME280;12348;42.710;23.378;2023-07-20T08:14:26;94814.53;;;40.54;35.85
20077;BME280;12348;42.710;23.378;2023-07-20T08:16:53;94818.69;;;41.26;35.22
20077;BME280;12348;42.710;23.378;2023-07-20T08:19:20;94814.84;;;40.56;36.63
20077;BME280;12348;42.710;23.378;2023-07-20T08:21:47;94809.66;;;39.34;38.08
20077;BME280;12348;42.710;23.378;2023-07-20T08:24:15;94808.59;;;38.78;40.49
20077;BME280;12348;42.710;23.378;2023-07-20T08:26:42;94812.66;;;37.72;44.57
20077;BME280;12348;42.710;23.378;2023-07-20T08:29:08;94815.72;;;37.50;43.87
20077;BME280;12348;42.710;23.378;2023-07-20T08:31:35;94817.06;;;38.06;43.15
20077;BME280;12348;42.710;23.378;2023-07-20T08:34:02;94806.31;;;36.55;44.91
20077;BME280;12348;42.710;23.378;2023-07-20T08:36:28;94802.31;;;37.78;41.61
20077;BME280;12348;42.710;23.378;2023-07-20T08:38:57;94816.94;;;38.24;40.06
20077;BME280;12348;42.710;23.378;2023-07-20T08:41:26;94810.69;;;38.20;38.84
20077;BME280;12348;42.710;23.378;2023-07-20T08:43:54;94799.50;;;38.11;38.61
20077;BME280;12348;42.710;23.378;2023-07-20T08:46:23;94796.09;;;37.74;39.14
20077;BME280;12348;42.710;23.378;2023-07-20T08:48:52;94798.63;;;38.53;37.31
20077;BME280;12348;42.710;23.378;2023-07-20T08:51:19;94793.50;;;37.61;39.24
20077;BME280;12348;42.710;23.378;2023-07-20T08:53:47;94804.38;;;37.77;38.92
20077;BME280;12348;42.710;23.378;2023-07-20T08:56:18;94791.75;;;37.73;38.66
20077;BME280;12348;42.710;23.378;2023-07-20T08:58:47;94798.66;;;37.96;38.54
20077;BME280;12348;42.710;23.378;2023-07-20T09:01:14;94790.66;;;38.27;36.79
20077;BME280;12348;42.710;23.378;2023-07-20T09:03:42;94792.13;;;38.47;37.64
20077;BME280;12348;42.710;23.378;2023-07-20T09:06:10;94788.56;;;37.89;38.58
20077;BME280;12348;42.710;23.378;2023-07-20T09:08:38;94779.81;;;37.54;38.84
20077;BME280;12348;42.710;23.378;2023-07-20T09:11:05;94782.66;;;37.35;39.66
20077;BME280;12348;42.710;23.378;2023-07-20T09:13:32;94768.81;;;38.22;38.45
20077;BME280;12348;42.710;23.378;2023-07-20T09:16:00;94770.31;;;38.71;37.44
20077;BME280;12348;42.710;23.378;2023-07-20T09:18:29;94773.25;;;38.38;37.54
20077;BME280;12348;42.710;23.378;2023-07-20T09:21:02;94776.56;;;38.37;37.57
20077;BME280;12348;42.710;23.378;2023-07-20T09:23:34;94764.63;;;38.42;37.47
20077;BME280;12348;42.710;23.378;2023-07-20T09:26:10;94767.19;;;38.30;36.47
20077;BME280;12348;42.710;23.378;2023-07-20T09:28:41;94767.16;;;39.08;35.51
20077;BME280;12348;42.710;23.378;2023-07-20T09:31:17;94766.38;;;38.54;36.03
20077;BME280;12348;42.710;23.378;2023-07-20T09:33:44;94768.28;;;37.33;37.57
20077;BME280;12348;42.710;23.378;2023-07-20T09:36:11;94760.41;;;37.13;37.63
20077;BME280;12348;42.710;23.378;2023-07-20T09:38:38;94769.78;;;37.62;36.08
20077;BME280;12348;42.710;23.378;2023-07-20T09:41:13;94761.53;;;37.92;35.44
20077;BME280;12348;42.710;23.378;2023-07-20T09:43:39;94764.56;;;38.27;34.96
20077;BME280;12348;42.710;23.378;2023-07-20T09:46:06;94758.50;;;38.19;35.09
20077;BME280;12348;42.710;23.378;2023-07-20T09:48:35;94759.50;;;38.40;34.42
20077;BME280;12348;42.710;23.378;2023-07-20T09:51:03;94758.31;;;38.86;33.55
20077;BME280;12348;42.710;23.378;2023-07-20T09:53:33;94741.97;;;38.75;34.29
20077;BME280;12348;42.710;23.378;2023-07-20T09:56:00;94750.69;;;37.66;35.98
20077;BME280;12348;42.710;23.378;2023-07-20T09:58:27;94733.84;;;37.66;35.74
20077;BME280;12348;42.710;23.378;2023-07-20T10:00:57;94715.66;;;37.01;37.25
20077;BME280;12348;42.710;23.378;2023-07-20T10:03:29;94723.53;;;36.60;38.44
20077;BME280;12348;42.710;23.378;2023-07-20T10:06:00;94721.03;;;35.08;41.19
20077;BME280;12348;42.710;23.378;2023-07-20T10:08:29;94723.91;;;34.73;42.76
20077;BME280;12348;42.710;23.378;2023-07-20T10:10:58;94726.69;;;34.29;44.25
20077;BME280;12348;42.710;23.378;2023-07-20T10:13:26;94737.19;;;34.03;45.90
20077;BME280;12348;42.710;23.378;2023-07-20T10:15:54;94734.91;;;33.63;45.52
20077;BME280;12348;42.710;23.378;2023-07-20T10:18:28;94730.75;;;33.68;45.13
20077;BME280;12348;42.710;23.378;2023-07-20T10:20:59;94733.34;;;33.37;45.92
20077;BME280;12348;42.710;23.378;2023-07-20T10:23:29;94733.25;;;33.15;46.44
20077;BME280;12348;42.710;23.378;2023-07-20T10:25:56;94738.44;;;32.87;46.99
20077;BME280;12348;42.710;23.378;2023-07-20T10:28:23;94746.56;;;32.69;47.64
20077;BME280;12348;42.710;23.378;2023-07-20T10:30:50;94746.63;;;32.94;46.07
20077;BME280;12348;42.710;23.378;2023-07-20T10:33:18;94741.50;;;33.31;45.62
20077;BME280;12348;42.710;23.378;2023-07-20T10:35:53;94715.78;;;32.85;45.91
20077;BME280;12348;42.710;23.378;2023-07-20T10:38:38;94711.66;;;32.90;46.73
20077;BME280;12348;42.710;23.378;2023-07-20T10:41:16;94728.78;;;32.33;48.89
20077;BME280;12348;42.710;23.378;2023-07-20T10:43:43;94735.38;;;32.10;50.01
20077;BME280;12348;42.710;23.378;2023-07-20T10:46:11;94731.00;;;32.26;47.44
20077;BME280;12348;42.710;23.378;2023-07-20T10:48:59;94711.13;;;32.40;46.35
20077;BME280;12348;42.710;23.378;2023-07-20T10:51:26;94695.56;;;31.97;47.28
20077;BME280;12348;42.710;23.378;2023-07-20T10:53:54;94668.47;;;31.98;47.17
20077;BME280;12348;42.710;23.378;2023-07-20T10:56:26;94667.19;;;32.15;47.39
20077;BME280;12348;42.710;23.378;2023-07-20T10:58:56;94687.63;;;32.25;47.04
20077;BME280;12348;42.710;23.378;2023-07-20T11:01:27;94701.72;;;32.76;46.90
20077;BME280;12348;42.710;23.378;2023-07-20T11:03:57;94695.84;;;32.99;48.31
20077;BME280;12348;42.710;23.378;2023-07-20T11:06:33;94684.56;;;33.54;49.40
20077;BME280;12348;42.710;23.378;2023-07-20T11:09:12;94675.25;;;34.70;46.36
20077;BME280;12348;42.710;23.378;2023-07-20T11:11:41;94662.88;;;35.21;45.30
20077;BME280;12348;42.710;23.378;2023-07-20T11:14:09;94667.06;;;35.57;44.69
20077;BME280;12348;42.710;23.378;2023-07-20T11:16:38;94655.88;;;35.75;43.80
20077;BME280;12348;42.710;23.378;2023-07-20T11:19:06;94655.16;;;35.34;45.01
20077;BME280;12348;42.710;23.378;2023-07-20T11:21:37;94660.84;;;34.81;45.12
20077;BME280;12348;42.710;23.378;2023-07-20T11:24:05;94650.16;;;34.89;44.61
20077;BME280;12348;42.710;23.378;2023-07-20T11:26:44;94660.78;;;34.72;44.34
20077;BME280;12348;42.710;23.378;2023-07-20T11:29:11;94657.31;;;34.90;45.46
20077;BME280;12348;42.710;23.378;2023-07-20T11:31:40;94653.44;;;35.28;43.70
20077;BME280;12348;42.710;23.378;2023-07-20T11:34:11;94652.44;;;35.03;44.29
20077;BME280;12348;42.710;23.378;2023-07-20T11:36:39;94650.13;;;35.11;45.09
20077;BME280;12348;42.710;23.378;2023-07-20T11:39:07;94646.50;;;35.01;45.60
20077;BME280;12348;42.710;23.378;2023-07-20T11:41:34;94643.03;;;35.37;44.14
20077;BME280;12348;42.710;23.378;2023-07-20T11:44:02;94637.28;;;35.41;45.09
20077;BME280;12348;42.710;23.378;2023-07-20T11:46:29;94634.53;;;35.10;44.38
20077;BME280;12348;42.710;23.378;2023-07-20T11:48:57;94631.00;;;34.78;44.99
20077;BME280;12348;42.710;23.378;2023-07-20T11:51:26;94630.66;;;34.23;46.48
20077;BME280;12348;42.710;23.378;2023-07-20T11:53:53;94635.66;;;33.71;49.55
20077;BME280;12348;42.710;23.378;2023-07-20T11:56:20;94625.84;;;34.01;48.66
20077;BME280;12348;42.710;23.378;2023-07-20T11:58:47;94619.53;;;33.88;48.17
20077;BME280;12348;42.710;23.378;2023-07-20T12:01:15;94615.78;;;34.04;46.59
20077;BME280;12348;42.710;23.378;2023-07-20T12:03:44;94611.16;;;34.10;47.67
20077;BME280;12348;42.710;23.378;2023-07-20T12:06:10;94611.16;;;34.10;47.43
20077;BME280;12348;42.710;23.378;2023-07-20T12:08:41;94604.22;;;33.58;46.14
20077;BME280;12348;42.710;23.378;2023-07-20T12:11:08;94611.81;;;33.45;44.39
20077;BME280;12348;42.710;23.378;2023-07-20T12:13:36;94606.22;;;33.45;44.48
20077;BME280;12348;42.710;23.378;2023-07-20T12:16:09;94604.09;;;33.62;44.08
20077;BME280;12348;42.710;23.378;2023-07-20T12:18:37;94600.66;;;33.79;44.56
20077;BME280;12348;42.710;23.378;2023-07-20T12:21:05;94604.41;;;33.64;44.51
20077;BME280;12348;42.710;23.378;2023-07-20T12:23:35;94597.41;;;33.59;46.54
20077;BME280;12348;42.710;23.378;2023-07-20T12:26:03;94594.94;;;33.61;46.46
20077;BME280;12348;42.710;23.378;2023-07-20T12:28:31;94593.91;;;33.68;47.45
20077;BME280;12348;42.710;23.378;2023-07-20T12:30:58;94588.25;;;33.59;48.75
20077;BME280;12348;42.710;23.378;2023-07-20T12:33:25;94586.28;;;33.68;47.31
20077;BME280;12348;42.710;23.378;2023-07-20T12:35:53;94583.63;;;33.65;46.90
20077;BME280;12348;42.710;23.378;2023-07-20T12:38:23;94580.56;;;33.72;48.26
20077;BME280;12348;42.710;23.378;2023-07-20T12:40:50;94581.47;;;33.34;47.13
20077;BME280;12348;42.710;23.378;2023-07-20T12:43:17;94573.88;;;33.35;45.39
20077;BME280;12348;42.710;23.378;2023-07-20T12:45:44;94578.81;;;33.30;45.60
20077;BME280;12348;42.710;23.378;2023-07-20T12:48:11;94582.72;;;33.33;45.78
20077;BME280;12348;42.710;23.378;2023-07-20T12:50:38;94567.38;;;33.38;45.04
20077;BME280;12348;42.710;23.378;2023-07-20T12:53:06;94575.72;;;33.16;43.23